Sylvan Lake, South Dakota
Current Conditions -  °F | °C
As of 10:53 AM on Friday 31 Oct 2014 (Local Time) from KCUT Reporting Station
Clear Clear  
Wind Chill: 33°   Ceiling: Unl
Heat Index: 40°   Visibility: 10mi
Dew Point: 28°   Wind: 10mph
Humidity: 63%   Direction: 180°S
Pressure: 30.26"   Gusts: 20mph
Location:  43.6653°N, 103.766°W
Report Text: KCUT 311653Z AUTO 18009G17KT 140V200 10SM CLR 04/M02 A3026 RMK AO2 SLP261 T00441022
Loading
Personal Weather Stations






























Interactive Weather Map
Tropical Storm Tracking
New forecast layout! Learn more

10-Day Weather Forecast

Advertisements
Track Severe Weather on mobile